Nearby METAR Reports

 

KCXP - Carson City, Nevada, USA
Distance from station: WSW 2mi, 3km
Updated: Wed, Mar-29-2017 11:35pm PDT
Overcast
Overcast
 
Temperature: 55°F , 13°C
Dew Point: 34°F , 1°C
Humidity: 44%
Barometer: 30.10 inHg , 1019.3 hPa
Clouds: Overcast
Visibility: 10 miles , 16 km
Cloud details: Overcast 5000 ft
2017/03/30 06:35 KCXP 300635Z AUTO 10SM OVC050 13/01 A3010 RMK AO2
KRNO - Reno, Nevada, USA
Distance from station: N 21mi, 34km
Updated: Wed, Mar-29-2017 10:55pm PDT
Partly cloudy
Partly cloudy
 Wind from W
Wind: W 7 mph , 11 km/h
Temperature: 57°F , 14°C
Dew Point: 36°F , 2°C
Humidity: 44%
Barometer: 30.07 inHg , 1018.3 hPa
Clouds: Partly cloudy
Visibility: 10 miles , 16 km
Cloud details: Partly cloudy 7000 ft
Partly cloudy 10000 ft
2017/03/30 05:55 KRNO 300555Z 26006KT 10SM SCT070 SCT100 14/02 A3007 RMK AO2 SLP154 60000 T01390017 10200 20133 58011
 
KTRK - Truckee Tahoe, California, USA
Distance from station: WNW 24mi, 38km
Updated: Wed, Mar-29-2017 11:15pm PDT
Overcast
Overcast
 Wind from calm
Wind: Calm
Temperature: 36°F , 2°C
Dew Point: 34°F , 1°C
Humidity: 93%
Barometer: 30.15 inHg , 1021 hPa
Clouds: Overcast
Visibility: 10 miles , 16 km
Cloud details: Partly cloudy 3800 ft
Mostly cloudy 4400 ft
Overcast 6000 ft
2017/03/30 06:15 KTRK 300615Z AUTO 00000KT 10SM SCT038 BKN044 OVC060 02/01 A3015 RMK AO2
KTVL - South Lake Tahoe, California, USA
Distance from station: SW 26mi, 42km
Updated: Wed, Mar-29-2017 10:53pm PDT
Few Clouds
Few Clouds
 Wind from SSW
Wind: SSW 6 mph , 9 km/h
Temperature: 45°F , 7°C
Wind Chill: 42°F , 6°C
Dew Point: 37°F , 3°C
Humidity: 76%
Barometer: 30.18 inHg , 1022 hPa
Clouds: Few Clouds
Visibility: 10 miles , 16 km
Cloud details: Few Clouds 10000 ft
2017/03/30 05:53 KTVL 300553Z AUTO 21005KT 10SM FEW100 07/03 A3018 RMK AO2 SLP190 T00720028 10144 20067 58004
 
KRTS - Reno/Stead, Nevada, USA
Distance from station: NNW 34mi, 54km
Updated: Wed, Mar-29-2017 11:15pm PDT
Few Clouds
Few Clouds
 Wind from WSW
Wind: WSW 16 mph , 26 km/h, Gust: 24 mph , 39 km/h
Temperature: 50°F , 10°C
Wind Chill: 44°F , 7°C
Dew Point: 34°F , 1°C
Humidity: 54%
Barometer: 30.08 inHg , 1018.6 hPa
Clouds: Few Clouds
Visibility: 10 miles , 16 km
Cloud details: Few Clouds 8500 ft
2017/03/30 06:15 KRTS 300615Z AUTO 24014G21KT 10SM FEW085 10/01 A3008 RMK AO2
KBLU - Emigrant Gap, California, USA
Distance from station: W 54mi, 87km
Updated: Wed, Mar-29-2017 10:52pm PDT
Light rain, Overcast
Light rain, Overcast
 Wind from SSW
Wind: SSW 6 mph , 9 km/h
Temperature: 46°F , 8°C
Wind Chill: 43°F , 6°C
Dew Point: 45°F , 7°C
Humidity: 93%
Barometer: 30.18 inHg , 1022 hPa
Summary: Light rain
Clouds: Overcast
Visibility: 10 miles , 16 km
Cloud details: Mostly cloudy 5000 ft
Mostly cloudy 8000 ft
Overcast 9500 ft
2017/03/30 05:52 KBLU 300552Z AUTO 20005KT 10SM -RA BKN050 BKN080 OVC095 08/07 A3018 RMK AO2 RAB50 SLP176 P0000 60000 T00780067 10128 20078 58006 TSNO
 
KNFL - Fallon Nas, Nevada, USA
Distance from station: ENE 56mi, 89km
Updated: Wed, Mar-29-2017 10:56pm PDT
Mostly cloudy
Mostly cloudy
 Wind from WNW
Wind: WNW 5 mph , 7 km/h
Temperature: 54°F , 12°C
Dew Point: 36°F , 2°C
Humidity: 51%
Barometer: 30.04 inHg , 1017.3 hPa
Clouds: Mostly cloudy
Visibility: 10 miles , 16 km
Cloud details: Mostly cloudy 12000 ft
Mostly cloudy 16000 ft
Mostly cloudy 25000 ft
2017/03/30 05:56 KNFL 300556Z 30004KT 10SM BKN120 BKN160 BKN250 12/02 A3004 RMK AO2 SLP141 60000 T01220017 10211 20117 58010
KBAN - Bridgeport(Mcmwt, California, USA
Distance from station: S 60mi, 96km
Updated: Wed, Mar-29-2017 10:52pm PDT

 Wind from SW
Wind: SW 9 mph , 15 km/h, Gust: 23 mph , 37 km/h
Temperature: 48°F , 9°C
Wind Chill: 44°F , 7°C
Dew Point: 32°F , 0°C
Humidity: 54%
Barometer: 30.15 inHg , 1021 hPa
Visibility: 10 miles , 16 km
2017/03/30 05:52 KBAN 300552Z AUTO 22008G20KT 190V250 10SM 09/00 A3015 RMK AO2 SLP168 T00940000 10156 20067 $
 
KPVF - Placerville, California, USA
Distance from station: WSW 66mi, 105km
Updated: Wed, Mar-29-2017 11:15pm PDT
Mostly cloudy
Mostly cloudy
 Wind from SE
Wind: SE 7 mph , 11 km/h
Temperature: 55°F , 13°C
Dew Point: 46°F , 8°C
Humidity: 72%
Barometer: 30.13 inHg , 1020.3 hPa
Clouds: Mostly cloudy
Visibility: 10 miles , 16 km
Cloud details: Few Clouds 8500 ft
Mostly cloudy 12000 ft
2017/03/30 06:15 KPVF 300615Z AUTO 13006KT 10SM FEW085 BKN120 13/08 A3013 RMK AO1
KGOO - Grass Valley, California, USA
Distance from station: W 70mi, 112km
Updated: Wed, Mar-29-2017 11:15pm PDT
Mostly cloudy
Mostly cloudy
 Wind from calm
Wind: Calm
Temperature: 55°F , 13°C
Dew Point: 46°F , 8°C
Humidity: 72%
Barometer: 30.12 inHg , 1020 hPa
Clouds: Mostly cloudy
Visibility: 10 miles , 16 km
Cloud details: Few Clouds 4500 ft
Mostly cloudy 6500 ft
2017/03/30 06:15 KGOO 300615Z AUTO 00000KT 10SM FEW045 BKN065 13/08 A3012 RMK AO1
 
KAUN - Auburn Muni, California, USA
Distance from station: WSW 76mi, 123km
Updated: Wed, Mar-29-2017 11:15pm PDT
Mostly cloudy
Mostly cloudy
 Wind from SE
Wind: SE 6 mph , 9 km/h
Temperature: 61°F , 16°C
Dew Point: 50°F , 10°C
Humidity: 68%
Barometer: 30.09 inHg , 1019 hPa
Clouds: Mostly cloudy
Visibility: 10 miles , 16 km
Cloud details: Mostly cloudy 10000 ft
2017/03/30 06:15 KAUN 300615Z AUTO 13005KT 10SM BKN100 16/10 A3009 RMK AO1
KLOL - Lovelock, Nevada, USA
Distance from station: NE 85mi, 137km
Updated: Wed, Mar-29-2017 10:53pm PDT
Overcast
Overcast
 Wind from calm
Wind: Calm
Temperature: 52°F , 11°C
Dew Point: 39°F , 4°C
Humidity: 62%
Barometer: 30.03 inHg , 1016.9 hPa
Clouds: Overcast
Visibility: 10 miles , 16 km
Cloud details: Overcast 11000 ft
2017/03/30 05:53 KLOL 300553Z AUTO 00000KT 10SM OVC110 11/04 A3003 RMK AO2 SLP157 60000 T01060044 10183 20106 58012
 
KLHM - Lincoln, California, USA
Distance from station: WSW 91mi, 146km
Updated: Wed, Mar-29-2017 11:15pm PDT
Mostly cloudy
Mostly cloudy
 Wind from S
Wind: S 6 mph , 9 km/h
Temperature: 63°F , 17°C
Dew Point: 50°F , 10°C
Humidity: 64%
Barometer: 30.04 inHg , 1017.3 hPa
Clouds: Mostly cloudy
Visibility: 10 miles , 16 km
Cloud details: Mostly cloudy 11000 ft
2017/03/30 06:15 KLHM 300615Z AUTO 17005KT 10SM BKN110 17/10 A3004 RMK AO1
KBAB - Beale Afb/Marysv, California, USA
Distance from station: W 92mi, 148km
Updated: Wed, Mar-29-2017 10:58pm PDT
Mostly cloudy
Mostly cloudy
 Wind from E
Wind: E 7 mph , 11 km/h
Temperature: 63°F , 17°C
Dew Point: 55°F , 13°C
Humidity: 77%
Barometer: 30.03 inHg , 1016.9 hPa
Clouds: Mostly cloudy
Visibility: 10 miles , 16 km
Cloud details: Mostly cloudy 10000 ft
2017/03/30 05:58 KBAB 300558Z 10006KT 10SM BKN100 17/13 A3003 RMK AO2A SLP172 T01660125 10222 20161 58004 $
 
KMHR - Mather Field, California, USA
Distance from station: WSW 97mi, 156km
Updated: Wed, Mar-29-2017 11:30pm PDT
Few Clouds
Few Clouds
 Wind from SSE
Wind: SSE 6 mph , 9 km/h
Temperature: 55°F , 13°C
Dew Point: 52°F , 11°C
Humidity: 88%
Barometer: 30.06 inHg , 1017.9 hPa
Clouds: Few Clouds
Visibility: 10 miles , 16 km
Cloud details: Few Clouds 15000 ft
2017/03/30 06:30 KMHR 300630Z 16005KT 10SM FEW150 13/11 A3006
KMCC - Mcclellan Afb, California, USA
Distance from station: WSW 99mi, 159km
Updated: Wed, Mar-29-2017 11:15pm PDT
Mostly cloudy
Mostly cloudy
 Wind from SSE
Wind: SSE 9 mph , 15 km/h
Temperature: 59°F , 15°C
Dew Point: 52°F , 11°C
Humidity: 77%
Barometer: 30.07 inHg , 1018.3 hPa
Clouds: Mostly cloudy
Visibility: 10 miles , 16 km
Cloud details: Mostly cloudy 11000 ft
2017/03/30 06:15 KMCC 300615Z AUTO 15008KT 10SM BKN110 15/11 A3007 RMK AO2
 
KMYV - Marysville, California, USA
Distance from station: W 100mi, 161km
Updated: Wed, Mar-29-2017 10:53pm PDT
Mostly cloudy
Mostly cloudy
 Wind from calm
Wind: Calm
Temperature: 63°F , 17°C
Dew Point: 55°F , 13°C
Humidity: 77%
Barometer: 30.05 inHg , 1017.6 hPa
Clouds: Mostly cloudy
Visibility: 10 miles , 16 km
Cloud details: Mostly cloudy 11000 ft
2017/03/30 05:53 KMYV 300553Z AUTO 00000KT 10SM BKN110 17/13 A3005 RMK AO2 SLP178 T01670128 10222 20167 58004